Time;durP1;ratioP1;P1;durP2;ratioP2;P2;SDS_P1;SDS_P2;PMS_P1;PMS_P2;Temp;Humidity;BMP_temperature;BMP_pressure;BME280_temperature;BME280_humidity;BME280_pressure;Samples;Min_cycle;Max_cycle;Signal;HPM_P1;HPM_P2
2023/03/17 00:02:13;;;;;;;5.93;3.67;;;6.90;99.90;;;;;;6258386;22;20190;-84
2023/03/17 00:04:38;;;;;;;5.90;3.33;;;6.90;99.90;;;;;;6266272;22;20147;-84
2023/03/17 00:07:05;;;;;;;7.87;4.27;;;6.90;99.90;;;;;;6243570;22;20166;-84
2023/03/17 00:09:30;;;;;;;5.88;4.20;;;6.90;99.90;;;;;;6244560;22;20163;-83
2023/03/17 00:11:56;;;;;;;6.20;4.30;;;6.90;99.90;;;;;;6243873;22;20176;-83
2023/03/17 00:14:21;;;;;;;5.20;3.73;;;6.90;99.90;;;;;;6240639;22;20229;-83
2023/03/17 00:16:49;;;;;;;6.03;3.97;;;6.80;99.90;;;;;;6268895;22;20154;-85
2023/03/17 00:19:25;;;;;;;8.02;4.95;;;6.80;99.90;;;;;;6243176;22;20220;-83
2023/03/17 00:21:50;;;;;;;6.28;3.80;;;6.80;99.90;;;;;;6243935;22;20592;-84
2023/03/17 00:24:16;;;;;;;6.60;4.20;;;6.90;99.90;;;;;;6271101;22;20207;-84
2023/03/17 00:26:42;;;;;;;5.07;3.63;;;7.00;99.90;;;;;;6272538;22;20190;-84
2023/03/17 00:29:07;;;;;;;9.73;4.40;;;6.90;99.90;;;;;;6244757;22;20156;-83
2023/03/17 00:31:33;;;;;;;5.60;4.30;;;6.90;99.90;;;;;;6271705;22;20222;-83
2023/03/17 00:33:59;;;;;;;4.87;3.70;;;6.90;99.90;;;;;;6275082;22;20246;-83
2023/03/17 00:36:30;;;;;;;5.53;3.70;;;6.90;99.90;;;;;;6247738;22;20448;-83
2023/03/17 00:38:57;;;;;;;9.43;3.88;;;6.90;99.90;;;;;;6277495;22;20212;-86
2023/03/17 00:41:23;;;;;;;5.93;3.63;;;7.00;99.90;;;;;;6245404;22;20158;-82
2023/03/17 00:43:49;;;;;;;6.47;3.37;;;7.00;99.90;;;;;;6244323;22;20586;-83
2023/03/17 00:46:20;;;;;;;4.57;3.53;;;7.00;99.90;;;;;;6244436;22;20497;-84
2023/03/17 00:48:47;;;;;;;5.97;4.10;;;7.00;99.90;;;;;;6271199;22;20136;-83
2023/03/17 00:51:15;;;;;;;6.05;4.15;;;7.00;99.90;;;;;;6271373;22;20171;-84
2023/03/17 00:53:41;;;;;;;4.43;3.60;;;7.00;99.90;;;;;;6271147;22;21041;-83
2023/03/17 00:56:19;;;;;;;8.77;3.97;;;7.00;99.90;;;;;;6243736;22;20186;-83
2023/03/17 00:58:46;;;;;;;6.30;3.83;;;7.00;99.90;;;;;;6270876;22;20936;-83
2023/03/17 01:01:12;;;;;;;5.82;4.03;;;7.00;99.90;;;;;;6271678;22;20259;-84
2023/03/17 01:03:38;;;;;;;4.70;3.73;;;7.00;99.90;;;;;;6272813;22;20168;-80
2023/03/17 01:06:06;;;;;;;6.83;3.70;;;7.00;99.90;;;;;;6270660;22;20436;-84
2023/03/17 01:08:32;;;;;;;5.75;3.85;;;7.10;99.90;;;;;;6270781;22;20402;-84
2023/03/17 01:10:58;;;;;;;6.37;3.60;;;7.10;99.90;;;;;;6244003;22;20152;-84
2023/03/17 01:13:24;;;;;;;8.90;3.45;;;7.10;99.90;;;;;;6242886;22;20760;-84
2023/03/17 01:15:50;;;;;;;6.87;4.30;;;7.10;99.90;;;;;;6243968;22;20297;-84
2023/03/17 01:18:19;;;;;;;6.32;4.32;;;7.10;99.90;;;;;;6252003;22;20382;-84
2023/03/17 01:20:44;;;;;;;7.47;3.60;;;7.10;99.90;;;;;;6242067;22;20215;-85
2023/03/17 01:23:11;;;;;;;7.20;4.33;;;7.20;99.90;;;;;;6272152;22;20186;-83
2023/03/17 01:25:39;;;;;;;3.55;2.85;;;7.20;99.90;;;;;;6246266;22;20151;-83
2023/03/17 01:28:05;;;;;;;5.20;3.72;;;7.20;99.90;;;;;;6271868;22;20251;-84
2023/03/17 01:30:37;;;;;;;6.40;4.25;;;7.20;99.90;;;;;;6244888;22;20148;-84
2023/03/17 01:33:04;;;;;;;7.43;4.03;;;7.20;99.90;;;;;;6282990;22;20191;-82
2023/03/17 01:35:30;;;;;;;7.68;3.63;;;7.20;99.90;;;;;;6256690;22;20617;-83
2023/03/17 01:37:56;;;;;;;5.90;4.60;;;7.20;99.90;;;;;;6246472;22;20156;-82
2023/03/17 01:40:28;;;;;;;4.40;3.07;;;7.20;99.90;;;;;;6247955;22;20206;-83
2023/03/17 01:43:07;;;;;;;9.18;4.88;;;7.30;99.90;;;;;;6247057;22;20398;-85
2023/03/17 01:46:12;;;;;;;5.60;3.92;;;7.30;99.90;;;;;;6272228;22;20897;-84
2023/03/17 01:48:53;;;;;;;7.20;3.95;;;7.20;99.90;;;;;;6272404;22;20136;-81
2023/03/17 01:51:51;;;;;;;7.88;4.03;;;7.20;99.90;;;;;;6277334;22;20233;-83
2023/03/17 01:54:33;;;;;;;6.13;4.10;;;7.10;99.90;;;;;;6205533;22;20239;-82
2023/03/17 01:57:06;;;;;;;12.27;3.88;;;7.10;99.90;;;;;;6243071;22;20148;-83
2023/03/17 01:59:38;;;;;;;5.55;4.25;;;7.00;99.90;;;;;;6269346;22;20216;-83
2023/03/17 02:02:08;;;;;;;4.65;3.17;;;7.10;99.90;;;;;;6239945;22;20341;-84
2023/03/17 02:04:34;;;;;;;6.80;3.50;;;7.10;99.90;;;;;;6244583;22;20181;-84
2023/03/17 02:07:01;;;;;;;4.70;3.67;;;7.10;99.90;;;;;;6271656;22;20158;-83
2023/03/17 02:09:27;;;;;;;5.60;2.95;;;7.10;99.90;;;;;;6271863;22;20148;-83
2023/03/17 02:11:54;;;;;;;5.78;3.65;;;7.10;99.90;;;;;;6244715;22;20822;-85
2023/03/17 02:14:20;;;;;;;4.50;3.25;;;7.00;99.90;;;;;;6272241;22;20147;-81
2023/03/17 02:16:45;;;;;;;5.33;3.63;;;7.00;99.90;;;;;;6278838;22;20148;-82
2023/03/17 02:19:11;;;;;;;5.50;3.50;;;7.00;99.90;;;;;;6271480;22;20374;-83
2023/03/17 02:21:57;;;;;;;5.03;3.37;;;7.10;99.90;;;;;;6244458;22;20218;-83
2023/03/17 02:24:30;;;;;;;5.07;3.58;;;7.00;99.90;;;;;;6271697;22;20593;-86
2023/03/17 02:27:01;;;;;;;9.90;4.65;;;7.00;99.90;;;;;;6271692;22;20461;-82
2023/03/17 02:29:27;;;;;;;6.68;3.60;;;7.00;99.90;;;;;;6245449;22;20148;-82
2023/03/17 02:31:53;;;;;;;6.63;4.33;;;7.10;99.90;;;;;;6244088;22;20257;-85
2023/03/17 02:34:19;;;;;;;6.50;3.97;;;7.10;99.90;;;;;;6243700;22;20478;-83
2023/03/17 02:36:45;;;;;;;5.00;3.23;;;7.10;99.90;;;;;;6240421;22;20389;-84
2023/03/17 02:39:11;;;;;;;7.33;4.03;;;7.00;99.90;;;;;;6273846;22;20168;-83
2023/03/17 02:41:37;;;;;;;6.95;3.60;;;7.00;99.90;;;;;;6271184;22;20382;-84
2023/03/17 02:44:02;;;;;;;5.03;3.20;;;7.00;99.90;;;;;;6273203;22;20148;-82
2023/03/17 02:46:28;;;;;;;5.77;3.57;;;7.10;99.90;;;;;;6272940;22;20180;-82
2023/03/17 02:48:54;;;;;;;21.03;4.80;;;7.10;99.90;;;;;;6245646;22;20159;-82
2023/03/17 02:51:20;;;;;;;5.60;4.18;;;7.10;99.90;;;;;;6244929;22;20534;-81
2023/03/17 02:53:45;;;;;;;5.63;3.97;;;7.10;99.90;;;;;;6272256;22;20168;-83
2023/03/17 02:56:11;;;;;;;6.03;3.80;;;7.10;99.90;;;;;;6273034;22;20572;-84
2023/03/17 02:58:37;;;;;;;6.53;3.73;;;7.00;99.90;;;;;;6271244;22;20219;-82
2023/03/17 03:01:03;;;;;;;6.03;4.00;;;7.00;99.90;;;;;;6271732;22;20154;-84
2023/03/17 03:03:28;;;;;;;6.30;4.07;;;7.10;99.90;;;;;;6277947;22;20191;-83
2023/03/17 03:05:54;;;;;;;6.13;4.37;;;7.20;99.90;;;;;;6273371;22;20702;-81
2023/03/17 03:08:20;;;;;;;5.03;4.00;;;7.10;99.90;;;;;;6244258;22;20238;-83
2023/03/17 03:10:46;;;;;;;9.77;4.72;;;7.20;99.90;;;;;;6245317;22;20151;-84
2023/03/17 03:13:12;;;;;;;6.87;3.57;;;7.20;99.90;;;;;;6250576;22;20187;-83
2023/03/17 03:15:40;;;;;;;7.17;3.83;;;7.10;99.90;;;;;;6247499;22;20171;-84
2023/03/17 03:18:06;;;;;;;6.25;3.75;;;7.00;99.90;;;;;;6247676;22;20156;-82
2023/03/17 03:20:31;;;;;;;5.07;3.53;;;6.90;99.90;;;;;;6244674;22;20178;-83
2023/03/17 03:22:57;;;;;;;5.53;3.97;;;7.00;99.90;;;;;;6238651;22;20227;-82
2023/03/17 03:25:22;;;;;;;4.33;2.90;;;7.10;99.90;;;;;;6271633;22;20152;-84
2023/03/17 03:27:48;;;;;;;6.40;3.33;;;7.10;99.90;;;;;;6270956;22;20226;-83
2023/03/17 03:30:14;;;;;;;6.40;3.40;;;7.00;99.90;;;;;;6245533;22;20219;-85
2023/03/17 03:32:39;;;;;;;5.07;2.77;;;7.00;99.90;;;;;;6272089;22;20175;-85
2023/03/17 03:35:05;;;;;;;4.37;3.10;;;7.00;99.90;;;;;;6272270;22;20160;-84
2023/03/17 03:37:31;;;;;;;7.37;3.93;;;7.00;99.90;;;;;;6246911;22;20235;-82
2023/03/17 03:39:56;;;;;;;3.63;2.93;;;6.90;99.90;;;;;;6281884;22;20383;-82
2023/03/17 03:42:22;;;;;;;7.27;3.87;;;6.90;99.90;;;;;;6277801;22;20195;-84
2023/03/17 03:44:47;;;;;;;7.83;3.97;;;6.80;99.90;;;;;;6246668;22;20192;-85
2023/03/17 03:47:13;;;;;;;6.77;3.60;;;6.80;99.90;;;;;;6246785;22;20215;-84
2023/03/17 03:49:38;;;;;;;4.53;3.57;;;6.80;99.90;;;;;;6272848;22;20151;-81
2023/03/17 03:52:04;;;;;;;9.93;3.80;;;6.70;99.90;;;;;;6243032;22;20188;-84
2023/03/17 03:54:30;;;;;;;4.73;3.57;;;6.70;99.90;;;;;;6242965;22;20206;-84
2023/03/17 03:56:56;;;;;;;4.30;3.30;;;6.70;99.90;;;;;;6244687;22;20374;-85
2023/03/17 03:59:21;;;;;;;8.82;4.00;;;6.60;99.90;;;;;;6270805;22;20144;-86
2023/03/17 04:01:47;;;;;;;5.53;3.50;;;6.60;99.90;;;;;;6271721;22;20205;-81
2023/03/17 04:04:12;;;;;;;10.23;3.50;;;6.60;99.90;;;;;;6242566;22;20167;-84
2023/03/17 04:06:38;;;;;;;8.93;4.00;;;6.60;99.90;;;;;;6245075;22;20163;-84
2023/03/17 04:09:04;;;;;;;5.50;3.47;;;6.60;99.90;;;;;;6243428;22;20148;-82
2023/03/17 04:11:29;;;;;;;5.37;3.97;;;6.50;99.90;;;;;;6243821;22;20425;-84
2023/03/17 04:13:55;;;;;;;6.70;3.60;;;6.50;99.90;;;;;;6269057;22;20640;-85
2023/03/17 04:16:20;;;;;;;4.73;3.73;;;6.50;99.90;;;;;;6278265;22;20189;-81
2023/03/17 04:18:46;;;;;;;7.07;4.10;;;6.50;99.90;;;;;;6272116;22;20478;-85
2023/03/17 04:21:12;;;;;;;6.43;3.73;;;6.50;99.90;;;;;;6245088;22;20159;-83
2023/03/17 04:23:38;;;;;;;3.85;3.35;;;6.40;99.90;;;;;;6270718;22;20164;-83
2023/03/17 04:26:04;;;;;;;8.23;3.93;;;6.40;99.90;;;;;;6243953;22;20326;-85
2023/03/17 04:28:30;;;;;;;6.07;3.70;;;6.40;99.90;;;;;;6244561;22;21031;-85
2023/03/17 04:30:55;;;;;;;9.40;6.07;;;6.40;99.90;;;;;;6272013;22;20140;-85
2023/03/17 04:33:21;;;;;;;48.23;24.40;;;6.30;99.90;;;;;;6271960;22;20574;-84
2023/03/17 04:35:46;;;;;;;6.87;4.93;;;6.30;99.90;;;;;;6243995;22;20242;-83
2023/03/17 04:38:12;;;;;;;48.97;18.03;;;6.30;99.90;;;;;;6271972;22;20212;-83
2023/03/17 04:40:38;;;;;;;10.53;6.20;;;6.20;99.90;;;;;;6244944;22;20155;-85
2023/03/17 04:43:03;;;;;;;3.90;3.00;;;6.10;99.90;;;;;;6273092;22;20190;-82
2023/03/17 04:45:29;;;;;;;5.87;3.87;;;6.10;99.90;;;;;;6246280;22;20156;-84
2023/03/17 04:47:54;;;;;;;49.17;28.27;;;6.00;99.90;;;;;;6245750;22;20649;-83
2023/03/17 04:50:20;;;;;;;18.37;11.47;;;6.00;99.90;;;;;;6272359;22;20558;-84
2023/03/17 04:52:46;;;;;;;9.13;5.90;;;5.90;99.90;;;;;;6244937;22;20180;-84
2023/03/17 04:55:11;;;;;;;11.77;6.10;;;5.90;99.90;;;;;;6244889;22;20152;-85
2023/03/17 04:57:37;;;;;;;10.37;7.13;;;5.90;99.90;;;;;;6273574;22;20209;-83
2023/03/17 05:00:08;;;;;;;16.77;10.00;;;5.90;99.90;;;;;;6246632;22;20148;-84
2023/03/17 05:02:35;;;;;;;13.40;9.25;;;5.80;99.90;;;;;;6246884;22;20210;-83
2023/03/17 05:05:00;;;;;;;27.00;17.10;;;5.80;99.90;;;;;;6244201;22;20152;-81
2023/03/17 05:07:26;;;;;;;49.57;24.53;;;5.80;99.90;;;;;;6275397;22;20159;-80
2023/03/17 05:09:51;;;;;;;21.30;10.63;;;5.80;99.90;;;;;;6280806;22;20406;-85
2023/03/17 05:12:17;;;;;;;11.30;8.10;;;5.80;99.90;;;;;;6274355;22;20175;-80
2023/03/17 05:14:42;;;;;;;9.00;5.80;;;5.80;99.90;;;;;;6274617;22;20138;-85
2023/03/17 05:17:08;;;;;;;4.70;4.07;;;5.70;99.90;;;;;;6248472;22;20152;-83
2023/03/17 05:19:34;;;;;;;8.30;6.90;;;5.60;99.90;;;;;;6274036;22;20148;-84
2023/03/17 05:21:59;;;;;;;6.60;3.90;;;5.60;99.90;;;;;;6246995;22;20184;-83
2023/03/17 05:24:25;;;;;;;7.57;4.13;;;5.50;99.90;;;;;;6272591;22;20136;-83
2023/03/17 05:26:51;;;;;;;6.50;3.90;;;5.50;99.90;;;;;;6270776;22;20151;-85
2023/03/17 05:29:16;;;;;;;6.80;3.97;;;5.50;99.90;;;;;;6253170;22;20386;-84
2023/03/17 05:31:42;;;;;;;10.00;4.40;;;5.50;99.90;;;;;;6247150;22;20235;-82
2023/03/17 05:34:07;;;;;;;13.27;7.33;;;5.50;99.90;;;;;;6273569;22;20227;-84
2023/03/17 05:36:33;;;;;;;6.73;4.80;;;5.60;99.90;;;;;;6272858;22;20147;-83
2023/03/17 05:38:59;;;;;;;8.73;6.33;;;5.80;99.90;;;;;;6275342;22;20160;-83
2023/03/17 05:41:25;;;;;;;7.20;4.53;;;5.90;99.90;;;;;;6273876;22;20653;-83
2023/03/17 05:43:51;;;;;;;4.68;3.55;;;5.90;99.90;;;;;;6250951;22;20167;-82
2023/03/17 05:46:16;;;;;;;6.93;3.70;;;5.90;99.90;;;;;;6257723;22;20177;-82
2023/03/17 05:48:42;;;;;;;10.80;6.53;;;5.90;99.90;;;;;;6274113;22;20657;-85
2023/03/17 05:51:08;;;;;;;5.30;3.80;;;5.90;99.90;;;;;;6244622;22;20289;-83
2023/03/17 05:53:35;;;;;;;8.60;4.67;;;6.00;99.90;;;;;;6243749;22;20198;-81
2023/03/17 05:56:00;;;;;;;5.80;4.38;;;6.20;99.90;;;;;;6242782;22;20156;-86
2023/03/17 05:58:26;;;;;;;7.20;4.03;;;6.30;99.90;;;;;;6270177;22;20187;-85
2023/03/17 06:00:51;;;;;;;12.87;7.10;;;6.50;99.90;;;;;;6237194;22;20637;-83
2023/03/17 06:03:17;;;;;;;7.17;5.03;;;6.70;99.90;;;;;;6238211;22;20187;-82
2023/03/17 06:05:42;;;;;;;6.70;4.50;;;6.80;99.90;;;;;;6240037;22;20156;-83
2023/03/17 06:08:08;;;;;;;5.77;4.70;;;6.90;99.90;;;;;;6233023;22;20586;-83
2023/03/17 06:10:34;;;;;;;9.38;4.60;;;7.50;99.90;;;;;;6267777;22;20155;-82
2023/03/17 06:13:00;;;;;;;6.70;4.13;;;8.50;99.90;;;;;;6265544;22;20184;-83
2023/03/17 06:15:26;;;;;;;6.60;4.50;;;9.90;99.90;;;;;;6240133;22;20159;-83
2023/03/17 06:17:51;;;;;;;4.93;4.10;;;11.50;99.90;;;;;;6267513;22;20398;-82
2023/03/17 06:20:17;;;;;;;6.40;3.60;;;12.00;99.90;;;;;;6267052;22;20255;-82
2023/03/17 06:22:43;;;;;;;7.93;4.00;;;12.20;99.90;;;;;;6234602;22;20690;-84
2023/03/17 06:25:10;;;;;;;5.47;3.53;;;12.50;99.40;;;;;;6238149;22;20472;-85
2023/03/17 06:27:36;;;;;;;8.88;5.13;;;12.20;98.90;;;;;;6267258;22;20493;-81
2023/03/17 06:30:03;;;;;;;8.32;5.03;;;11.90;98.20;;;;;;6239327;22;20152;-84
2023/03/17 06:32:29;;;;;;;24.63;11.82;;;11.40;97.70;;;;;;6239625;22;20226;-82
2023/03/17 06:34:55;;;;;;;6.70;4.68;;;10.80;98.20;;;;;;6230801;22;20211;-83
2023/03/17 06:37:21;;;;;;;11.03;5.43;;;10.60;99.10;;;;;;6263016;22;20144;-82
2023/03/17 06:39:47;;;;;;;103.70;50.97;;;10.90;99.70;;;;;;6268285;22;20171;-84
2023/03/17 06:42:12;;;;;;;14.23;7.80;;;10.80;99.10;;;;;;6269409;22;20169;-80
2023/03/17 06:44:38;;;;;;;36.13;20.20;;;11.00;99.00;;;;;;6243618;22;20162;-83
2023/03/17 06:47:05;;;;;;;11.77;6.80;;;11.50;98.70;;;;;;6267045;22;20132;-84
2023/03/17 06:49:31;;;;;;;9.75;5.65;;;12.50;99.60;;;;;;6239392;22;20671;-83
2023/03/17 06:51:57;;;;;;;5.60;3.47;;;13.90;97.90;;;;;;6233377;22;20287;-84
2023/03/17 06:54:24;;;;;;;8.27;5.20;;;15.00;97.70;;;;;;6264044;22;20367;-84
2023/03/17 06:56:50;;;;;;;7.53;4.90;;;17.40;96.40;;;;;;6266248;22;20377;-83
2023/03/17 06:59:16;;;;;;;5.63;4.40;;;19.20;89.60;;;;;;6267197;22;20397;-83
2023/03/17 07:01:41;;;;;;;6.63;4.20;;;20.40;84.20;;;;;;6239896;22;20925;-82
2023/03/17 07:04:06;;;;;;;5.57;4.17;;;20.80;78.20;;;;;;6242139;22;20155;-84
2023/03/17 07:06:32;;;;;;;5.87;3.70;;;21.40;75.10;;;;;;6281275;22;20186;-84
2023/03/17 07:08:58;;;;;;;6.07;4.00;;;19.70;70.40;;;;;;6243335;22;20182;-83
2023/03/17 07:11:25;;;;;;;6.87;4.70;;;17.70;76.10;;;;;;6269704;22;22488;-83
2023/03/17 07:13:50;;;;;;;10.43;5.00;;;16.40;80.70;;;;;;6241130;22;20727;-84
2023/03/17 07:16:18;;;;;;;14.50;6.10;;;15.30;85.20;;;;;;6270024;22;20351;-84
2023/03/17 07:18:44;;;;;;;6.00;4.33;;;14.50;89.00;;;;;;6239456;22;20160;-81
2023/03/17 07:21:09;;;;;;;8.83;4.23;;;13.80;90.90;;;;;;6236072;22;20485;-84
2023/03/17 07:23:35;;;;;;;8.90;4.50;;;14.30;91.40;;;;;;6236307;22;20337;-82
2023/03/17 07:26:01;;;;;;;11.63;5.40;;;14.50;90.90;;;;;;6265093;22;20143;-82
2023/03/17 07:28:27;;;;;;;6.63;4.83;;;14.90;90.90;;;;;;6241188;22;20152;-84
2023/03/17 07:30:52;;;;;;;7.60;4.30;;;14.50;90.80;;;;;;6240091;22;20408;-83
2023/03/17 07:33:21;;;;;;;5.70;4.63;;;14.10;90.60;;;;;;6238643;22;20193;-83
2023/03/17 07:35:48;;;;;;;5.20;4.30;;;13.80;91.00;;;;;;6247099;22;20164;-82
2023/03/17 07:38:15;;;;;;;6.67;4.13;;;14.30;92.40;;;;;;6249338;22;20980;-81
2023/03/17 07:40:41;;;;;;;5.80;4.80;;;15.50;91.10;;;;;;6280089;22;20404;-80
2023/03/17 07:43:07;;;;;;;6.70;4.63;;;16.20;89.30;;;;;;6275987;22;20406;-84
2023/03/17 07:45:34;;;;;;;7.93;4.90;;;17.30;88.70;;;;;;6278761;22;20440;-82
2023/03/17 07:48:01;;;;;;;8.13;4.20;;;17.20;85.00;;;;;;6277135;22;20163;-80
2023/03/17 07:50:27;;;;;;;5.63;4.70;;;17.90;85.00;;;;;;6279647;22;20404;-82
2023/03/17 07:52:52;;;;;;;7.67;4.83;;;19.40;84.10;;;;;;6243648;23;20812;-80
2023/03/17 07:55:18;;;;;;;6.83;4.67;;;20.00;76.40;;;;;;6252260;23;20175;-80
2023/03/17 07:57:43;;;;;;;6.10;4.70;;;19.50;74.80;;;;;;6251055;23;20156;-81
2023/03/17 08:00:12;;;;;;;5.60;5.03;;;19.00;75.20;;;;;;6251589;23;20140;-81
2023/03/17 08:02:38;;;;;;;6.37;4.40;;;18.20;78.60;;;;;;6242224;23;20172;-83
2023/03/17 08:05:06;;;;;;;12.60;5.33;;;17.60;80.30;;;;;;6236629;23;20383;-84
2023/03/17 08:07:32;;;;;;;7.90;4.93;;;17.20;81.80;;;;;;6238883;22;20411;-84
2023/03/17 08:09:57;;;;;;;6.17;4.50;;;17.40;82.80;;;;;;6237300;23;20384;-83
2023/03/17 08:12:24;;;;;;;15.53;6.30;;;18.90;85.10;;;;;;6237430;23;20230;-82
2023/03/17 08:14:50;;;;;;;7.73;4.10;;;20.30;78.20;;;;;;6235646;23;20182;-82
2023/03/17 08:17:16;;;;;;;6.83;4.97;;;21.30;75.50;;;;;;6233307;23;20370;-83
2023/03/17 08:19:42;;;;;;;6.97;4.70;;;21.30;71.20;;;;;;6235117;23;20379;-83
2023/03/17 08:22:08;;;;;;;7.80;4.40;;;22.00;70.00;;;;;;6232908;23;20663;-83
2023/03/17 08:24:35;;;;;;;6.70;4.50;;;23.20;69.20;;;;;;6233211;23;20368;-84
2023/03/17 08:27:01;;;;;;;5.43;4.10;;;23.00;62.20;;;;;;6232370;23;20394;-83
2023/03/17 08:29:27;;;;;;;11.60;4.53;;;23.60;62.20;;;;;;6231304;23;20388;-83
2023/03/17 08:31:53;;;;;;;10.60;4.50;;;22.70;62.60;;;;;;6233774;23;20303;-83
2023/03/17 08:34:19;;;;;;;6.20;4.67;;;21.50;61.90;;;;;;6231432;23;20834;-84
2023/03/17 08:36:44;;;;;;;9.10;4.73;;;22.00;63.50;;;;;;6229326;23;20176;-83
2023/03/17 08:39:10;;;;;;;5.73;4.30;;;22.30;62.80;;;;;;6231893;23;20750;-83
2023/03/17 08:41:37;;;;;;;6.60;4.27;;;23.00;61.70;;;;;;6206197;23;20209;-85
2023/03/17 08:44:02;;;;;;;6.00;3.90;;;23.50;60.70;;;;;;6234992;23;20236;-83
2023/03/17 08:46:30;;;;;;;6.23;4.03;;;23.60;57.90;;;;;;6232297;23;20761;-82
2023/03/17 08:48:57;;;;;;;6.70;3.73;;;24.50;57.00;;;;;;6205290;23;20239;-82
2023/03/17 08:51:26;;;;;;;9.50;3.67;;;25.30;55.40;;;;;;6215113;23;20396;-85
2023/03/17 08:53:53;;;;;;;10.00;5.30;;;25.10;53.90;;;;;;6222310;23;20471;-83
2023/03/17 08:56:20;;;;;;;5.20;4.43;;;23.10;55.00;;;;;;6209250;23;20446;-84
2023/03/17 08:58:46;;;;;;;8.80;4.43;;;22.90;58.00;;;;;;6238226;23;21125;-83
2023/03/17 09:01:12;;;;;;;6.10;4.43;;;22.10;58.10;;;;;;6210482;23;20443;-84
2023/03/17 09:03:39;;;;;;;13.80;4.47;;;21.30;61.70;;;;;;6236774;23;20395;-83
2023/03/17 09:06:06;;;;;;;5.30;4.50;;;21.70;60.80;;;;;;6236863;23;20372;-82
2023/03/17 09:08:38;;;;;;;8.10;5.27;;;21.50;60.30;;;;;;6236722;23;20367;-85
2023/03/17 09:11:06;;;;;;;7.13;4.67;;;21.50;60.80;;;;;;6238140;23;20444;-81
2023/03/17 09:13:33;;;;;;;5.57;4.00;;;21.20;62.40;;;;;;6211851;23;20431;-83
2023/03/17 09:16:00;;;;;;;11.43;4.73;;;21.60;62.10;;;;;;6207568;23;20383;-86
2023/03/17 09:18:26;;;;;;;5.93;4.80;;;21.90;61.70;;;;;;6206506;23;20394;-83
2023/03/17 09:20:51;;;;;;;9.57;4.33;;;22.00;61.30;;;;;;6233046;23;20453;-85
2023/03/17 09:23:17;;;;;;;7.03;5.20;;;21.60;59.50;;;;;;6205740;23;20403;-84
2023/03/17 09:25:43;;;;;;;4.90;4.40;;;21.40;60.30;;;;;;6206601;23;20158;-81
2023/03/17 09:28:11;;;;;;;6.90;4.53;;;21.70;61.40;;;;;;6205797;23;20153;-85
2023/03/17 09:30:39;;;;;;;10.33;4.00;;;22.30;62.20;;;;;;6233116;23;20152;-84
2023/03/17 09:33:04;;;;;;;5.60;4.00;;;22.70;60.80;;;;;;6207161;23;20538;-83
2023/03/17 09:35:31;;;;;;;4.30;3.90;;;23.40;58.20;;;;;;6233291;23;20434;-83
2023/03/17 09:37:57;;;;;;;6.10;4.10;;;23.60;56.20;;;;;;6197943;23;20176;-85
2023/03/17 09:40:36;;;;;;;5.70;4.53;;;23.70;56.70;;;;;;6204436;23;20408;-84
2023/03/17 09:43:19;;;;;;;6.53;5.03;;;24.60;56.20;;;;;;6208250;23;20440;-81
2023/03/17 09:45:44;;;;;;;9.40;5.20;;;25.10;54.40;;;;;;6207676;23;21059;-83
2023/03/17 09:48:35;;;;;;;6.87;5.53;;;25.00;53.80;;;;;;6208786;23;20416;-85
2023/03/17 09:51:10;;;;;;;6.27;4.80;;;24.10;55.00;;;;;;6233090;23;20237;-82
2023/03/17 09:53:48;;;;;;;6.10;4.40;;;24.00;54.90;;;;;;6208395;23;20746;-83
2023/03/17 09:56:16;;;;;;;5.53;4.67;;;24.10;56.90;;;;;;6207837;23;20385;-84
2023/03/17 09:58:53;;;;;;;5.30;4.47;;;24.20;56.00;;;;;;6236064;23;20367;-82
2023/03/17 10:01:19;;;;;;;7.63;4.90;;;23.60;56.40;;;;;;6248824;23;20425;-82
2023/03/17 10:03:46;;;;;;;6.50;4.93;;;23.20;56.40;;;;;;6247154;23;20480;-84
2023/03/17 10:06:22;;;;;;;5.50;3.93;;;22.70;57.40;;;;;;6239589;23;20373;-85
2023/03/17 10:09:15;;;;;;;6.93;4.57;;;22.40;58.70;;;;;;6206577;23;20386;-84
2023/03/17 10:11:44;;;;;;;7.47;4.47;;;22.10;56.90;;;;;;6214523;23;20445;-85
2023/03/17 10:14:28;;;;;;;5.87;4.20;;;20.60;58.00;;;;;;6237910;23;20372;-84
2023/03/17 10:17:10;;;;;;;9.53;4.00;;;19.70;61.20;;;;;;6210200;23;20379;-82
2023/03/17 10:19:41;;;;;;;8.90;4.33;;;19.50;61.40;;;;;;6207450;23;20383;-82
2023/03/17 10:22:15;;;;;;;5.70;3.60;;;19.30;63.10;;;;;;6234420;23;20866;-82
2023/03/17 10:24:48;;;;;;;5.37;3.53;;;19.00;58.50;;;;;;6215450;23;20363;-84
2023/03/17 10:27:16;;;;;;;5.57;3.67;;;18.90;57.90;;;;;;6238544;23;20455;-85
2023/03/17 10:29:42;;;;;;;7.10;4.03;;;18.80;58.20;;;;;;6218086;23;21058;-85
2023/03/17 10:32:11;;;;;;;6.17;3.70;;;18.50;58.50;;;;;;6209056;23;20490;-85
2023/03/17 10:34:38;;;;;;;4.87;3.50;;;18.10;58.10;;;;;;6235543;23;20140;-85
2023/03/17 10:37:07;;;;;;;4.77;3.57;;;17.50;58.80;;;;;;6237440;23;20429;-85
2023/03/17 10:39:45;;;;;;;5.70;3.30;;;17.10;59.50;;;;;;6236185;23;20419;-83
2023/03/17 10:42:22;;;;;;;8.90;3.53;;;16.80;60.40;;;;;;6233945;23;20505;-82
2023/03/17 10:44:57;;;;;;;6.67;3.50;;;17.10;61.60;;;;;;6207606;23;20469;-84
2023/03/17 10:47:43;;;;;;;5.53;3.90;;;17.30;59.50;;;;;;6231482;23;20841;-84
2023/03/17 10:50:23;;;;;;;4.33;3.20;;;17.50;63.20;;;;;;6209160;23;20410;-84
2023/03/17 10:52:56;;;;;;;8.13;3.43;;;17.70;63.50;;;;;;6209396;23;20855;-86
2023/03/17 10:55:25;;;;;;;5.90;3.57;;;17.80;61.60;;;;;;6207906;23;20388;-85
2023/03/17 10:57:57;;;;;;;8.90;3.57;;;17.90;61.40;;;;;;6208808;23;20414;-81
2023/03/17 11:00:27;;;;;;;8.10;3.83;;;17.80;63.30;;;;;;6235826;23;20383;-84
2023/03/17 11:02:57;;;;;;;6.87;3.53;;;17.80;63.80;;;;;;6236470;23;20399;-85
2023/03/17 11:05:27;;;;;;;6.87;3.70;;;17.90;64.10;;;;;;6207296;23;20470;-84
2023/03/17 11:08:07;;;;;;;9.27;3.73;;;18.00;62.70;;;;;;6226379;23;20841;-85
2023/03/17 11:10:37;;;;;;;5.60;3.50;;;17.90;66.00;;;;;;6207246;23;20387;-83
2023/03/17 11:13:03;;;;;;;6.40;4.27;;;18.00;61.60;;;;;;6235224;23;20829;-84
2023/03/17 11:15:51;;;;;;;8.93;5.00;;;18.10;62.80;;;;;;6206475;23;20375;-82
2023/03/17 11:18:31;;;;;;;5.43;3.13;;;18.30;61.90;;;;;;6206017;23;20387;-82
2023/03/17 11:21:14;;;;;;;6.10;3.70;;;18.30;62.80;;;;;;6206957;23;20375;-83
2023/03/17 11:23:46;;;;;;;8.30;3.47;;;18.30;61.50;;;;;;6208083;23;20431;-83
2023/03/17 11:26:56;;;;;;;8.50;3.20;;;18.20;60.20;;;;;;6217711;23;20387;-85
2023/03/17 11:29:31;;;;;;;5.37;3.37;;;18.20;60.40;;;;;;6239643;23;20363;-86
2023/03/17 11:32:11;;;;;;;6.63;3.50;;;18.20;62.00;;;;;;6209841;23;20426;-83
2023/03/17 11:35:11;;;;;;;4.40;3.20;;;18.40;63.60;;;;;;6210033;23;20383;-85
2023/03/17 11:37:55;;;;;;;11.50;3.87;;;18.50;61.20;;;;;;6243377;23;20383;-83
2023/03/17 11:40:28;;;;;;;6.60;3.43;;;18.50;61.50;;;;;;6235801;23;20374;-82
2023/03/17 11:43:02;;;;;;;9.00;3.63;;;18.60;60.70;;;;;;6207971;23;20387;-84
2023/03/17 11:45:44;;;;;;;4.80;3.10;;;18.60;61.10;;;;;;6236730;23;20385;-85
2023/03/17 11:48:22;;;;;;;8.63;3.80;;;18.70;61.70;;;;;;6238173;23;20810;-82
2023/03/17 11:51:10;;;;;;;9.63;3.43;;;18.80;60.50;;;;;;6208426;23;20560;-83
2023/03/17 11:54:12;;;;;;;6.47;3.80;;;18.90;60.00;;;;;;6234911;23;20445;-84
2023/03/17 11:56:46;;;;;;;7.40;4.50;;;18.90;60.20;;;;;;6174797;23;20383;-84
2023/03/17 11:59:18;;;;;;;7.27;4.50;;;19.10;63.60;;;;;;6210616;23;20422;-81
2023/03/17 12:01:54;;;;;;;5.23;4.37;;;19.20;62.30;;;;;;6235248;23;20878;-82
2023/03/17 12:04:46;;;;;;;6.00;3.90;;;19.20;61.90;;;;;;6209472;23;20914;-84
2023/03/17 12:07:20;;;;;;;10.10;3.30;;;19.30;60.50;;;;;;6227908;23;20383;-85
2023/03/17 12:10:12;;;;;;;6.90;4.10;;;19.40;62.10;;;;;;6210636;23;20735;-83
2023/03/17 12:12:43;;;;;;;8.30;4.03;;;19.80;61.90;;;;;;6243199;23;20414;-81
2023/03/17 12:15:17;;;;;;;8.03;3.90;;;19.90;59.80;;;;;;6242543;23;20364;-81
2023/03/17 12:17:51;;;;;;;6.13;3.30;;;19.80;61.70;;;;;;6235189;23;20404;-85
2023/03/17 12:20:23;;;;;;;5.83;4.53;;;19.60;59.20;;;;;;6207529;23;20398;-83
2023/03/17 12:22:57;;;;;;;4.83;3.00;;;19.40;59.50;;;;;;6208504;23;20773;-84
2023/03/17 12:25:48;;;;;;;6.03;3.13;;;19.20;62.20;;;;;;6243424;23;20894;-80
2023/03/17 12:28:21;;;;;;;7.70;3.80;;;19.30;63.90;;;;;;6240937;23;20364;-82
2023/03/17 12:30:53;;;;;;;5.10;3.40;;;19.40;62.10;;;;;;6210419;23;20460;-83
2023/03/17 12:33:35;;;;;;;5.07;3.70;;;19.20;61.40;;;;;;6233823;23;20426;-82
2023/03/17 12:36:04;;;;;;;10.80;3.77;;;19.20;63.90;;;;;;6208436;23;20849;-83
2023/03/17 12:38:39;;;;;;;7.67;3.30;;;19.30;65.00;;;;;;6241337;23;20383;-83
2023/03/17 12:41:30;;;;;;;4.43;3.00;;;19.30;64.30;;;;;;6241315;23;20360;-84
2023/03/17 12:44:17;;;;;;;7.10;3.63;;;19.40;65.50;;;;;;6239945;23;20394;-84
2023/03/17 12:46:48;;;;;;;7.77;3.83;;;19.30;65.00;;;;;;6211048;23;20821;-81
2023/03/17 12:49:52;;;;;;;8.57;4.37;;;19.20;65.00;;;;;;6217264;23;21222;-85
2023/03/17 12:52:56;;;;;;;5.43;3.80;;;19.20;64.90;;;;;;6210519;23;20433;-85
2023/03/17 12:55:29;;;;;;;9.23;3.33;;;19.40;66.00;;;;;;6212052;23;20375;-83
2023/03/17 12:58:06;;;;;;;5.03;3.20;;;19.60;65.00;;;;;;6210942;23;20371;-83
2023/03/17 13:00:47;;;;;;;4.30;2.33;;;19.60;63.20;;;;;;6211036;23;20371;-84
2023/03/17 13:03:23;;;;;;;4.40;2.37;;;19.60;61.90;;;;;;6237341;23;20463;-84